Time;durP1;ratioP1;P1;durP2;ratioP2;P2;SDS_P1;SDS_P2;PMS_P1;PMS_P2;Temp;Humidity;BMP_temperature;BMP_pressure;BME280_temperature;BME280_humidity;BME280_pressure;Samples;Min_cycle;Max_cycle;Signal;HPM_P1;HPM_P2
2022/03/30 00:01:55;;;;;;;33.85;22.55;;;307.60;1664.00;;;;;;4971588;28;20019;-57
2022/03/30 00:04:21;;;;;;;28.17;17.25;;;307.60;1638.40;;;;;;4971451;28;20453;-57
2022/03/30 00:06:47;;;;;;;20.17;13.95;;;307.40;1689.60;;;;;;4971260;28;20462;-56
2022/03/30 00:09:13;;;;;;;17.20;11.95;;;307.40;1689.60;;;;;;4971635;28;20085;-56
2022/03/30 00:11:38;;;;;;;20.13;11.68;;;307.40;1689.60;;;;;;4971107;28;20030;-56
2022/03/30 00:14:05;;;;;;;17.08;9.77;;;307.40;1664.00;;;;;;4970855;28;20066;-57
2022/03/30 00:16:31;;;;;;;35.22;16.90;;;307.40;1664.00;;;;;;4971393;28;20038;-57
2022/03/30 00:18:56;;;;;;;30.85;19.20;;;307.60;1638.40;;;;;;4971476;28;20026;-57
2022/03/30 00:21:22;;;;;;;27.67;17.25;;;307.60;1638.40;;;;;;4971471;28;20466;-57
2022/03/30 00:23:48;;;;;;;38.85;24.35;;;307.60;1638.40;;;;;;4971100;28;20019;-57
2022/03/30 00:26:14;;;;;;;48.90;29.00;;;307.70;1638.40;;;;;;4971152;28;20035;-57
2022/03/30 00:28:40;;;;;;;37.75;19.92;;;307.80;1612.80;;;;;;4971222;28;20362;-56
2022/03/30 00:31:06;;;;;;;26.60;12.23;;;307.90;1612.80;;;;;;4970873;28;20027;-57
2022/03/30 00:33:31;;;;;;;21.67;10.68;;;308.10;1612.80;;;;;;4971179;28;20049;-57
2022/03/30 00:35:57;;;;;;;22.35;11.50;;;308.10;1612.80;;;;;;4971136;28;20029;-57
2022/03/30 00:38:23;;;;;;;49.50;28.30;;;308.10;1612.80;;;;;;4971113;28;20066;-57
2022/03/30 00:40:49;;;;;;;34.05;19.02;;;308.10;1612.80;;;;;;4971075;28;20370;-56
2022/03/30 00:43:15;;;;;;;29.13;9.65;;;308.10;1638.40;;;;;;4970760;28;20114;-57
2022/03/30 00:45:41;;;;;;;31.13;14.40;;;307.90;1664.00;;;;;;4970898;28;20023;-57
2022/03/30 00:48:07;;;;;;;27.75;16.23;;;307.80;1664.00;;;;;;4970882;28;20355;-56
2022/03/30 00:50:33;;;;;;;29.75;13.05;;;307.90;1638.40;;;;;;4971293;28;20023;-57
2022/03/30 00:52:59;;;;;;;31.55;14.65;;;308.10;1638.40;;;;;;4971151;28;20387;-56
2022/03/30 00:55:26;;;;;;;27.83;16.92;;;307.80;1689.60;;;;;;4971073;28;20031;-56
2022/03/30 00:57:53;;;;;;;24.42;15.25;;;307.80;1689.60;;;;;;4970867;28;20039;-56
2022/03/30 01:00:19;;;;;;;21.30;11.82;;;307.70;1689.60;;;;;;4970828;28;20166;-56
2022/03/30 01:02:47;;;;;;;26.77;16.00;;;307.60;1689.60;;;;;;4970667;28;20485;-57
2022/03/30 01:05:14;;;;;;;22.58;11.25;;;307.50;1715.20;;;;;;4970861;28;20101;-55
2022/03/30 01:07:40;;;;;;;24.10;12.05;;;307.60;1689.60;;;;;;4970935;28;20452;-56
2022/03/30 01:10:08;;;;;;;21.25;12.50;;;307.60;1689.60;;;;;;4970628;28;20051;-56
2022/03/30 01:12:38;;;;;;;25.42;12.00;;;307.50;1715.20;;;;;;4970595;28;20050;-57
2022/03/30 01:15:09;;;;;;;15.82;9.43;;;307.40;1715.20;;;;;;4970547;28;20074;-57
2022/03/30 01:17:37;;;;;;;16.80;8.60;;;307.40;1740.80;;;;;;4970817;28;20031;-55
2022/03/30 01:20:03;;;;;;;19.50;10.25;;;307.30;1740.80;;;;;;4970770;28;20030;-56
2022/03/30 01:22:29;;;;;;;16.15;8.25;;;307.40;1740.80;;;;;;4970773;28;20034;-56
2022/03/30 01:24:55;;;;;;;20.30;9.70;;;307.30;1740.80;;;;;;4971346;28;20034;-57
2022/03/30 01:27:21;;;;;;;18.45;8.50;;;307.40;1715.20;;;;;;4974215;28;20054;-55
2022/03/30 01:32:31;;;;;;;16.95;8.40;;;307.50;1689.60;;;;;;4974347;28;20029;-56
2022/03/30 01:35:03;;;;;;;31.63;11.10;;;307.60;1689.60;;;;;;4974172;28;20393;-56
2022/03/30 01:37:30;;;;;;;24.10;11.15;;;307.50;1715.20;;;;;;4973910;28;20089;-56
2022/03/30 01:39:57;;;;;;;22.73;11.25;;;307.50;1715.20;;;;;;4973992;28;20027;-57
2022/03/30 01:42:24;;;;;;;19.25;11.45;;;307.40;1715.20;;;;;;4973846;28;20601;-55
2022/03/30 01:44:50;;;;;;;20.88;11.02;;;307.40;1715.20;;;;;;4974218;28;20101;-55
2022/03/30 01:47:17;;;;;;;23.02;12.20;;;307.20;1740.80;;;;;;4973779;28;20105;-56
2022/03/30 01:49:44;;;;;;;25.33;11.88;;;282.50;1715.20;;;;;;4973918;28;20118;-56
2022/03/30 01:52:10;;;;;;;20.92;11.45;;;282.50;1740.80;;;;;;4973811;28;20110;-56
2022/03/30 01:54:40;;;;;;;24.25;9.57;;;282.50;1740.80;;;;;;4973531;28;20118;-56
2022/03/30 01:57:07;;;;;;;19.08;10.43;;;282.50;1715.20;;;;;;4973383;28;20035;-56
2022/03/30 01:59:33;;;;;;;30.77;13.13;;;307.30;1715.20;;;;;;4973519;28;20027;-56
2022/03/30 02:02:01;;;;;;;23.38;11.40;;;307.40;1715.20;;;;;;4973686;28;20026;-56
2022/03/30 02:04:26;;;;;;;29.83;11.77;;;307.50;1689.60;;;;;;4973464;28;20492;-56
2022/03/30 02:06:52;;;;;;;20.95;11.77;;;307.40;1715.20;;;;;;4973865;28;20118;-57
2022/03/30 02:09:18;;;;;;;32.88;11.45;;;307.30;1740.80;;;;;;4973208;28;20034;-57
2022/03/30 02:11:44;;;;;;;22.75;9.93;;;282.50;1740.80;;;;;;4973186;28;20367;-57
2022/03/30 02:14:10;;;;;;;24.73;10.18;;;282.50;1740.80;;;;;;4973225;28;20085;-56
2022/03/30 02:16:36;;;;;;;47.10;21.23;;;282.40;1740.80;;;;;;4973158;28;20110;-57
2022/03/30 02:19:02;;;;;;;35.28;19.73;;;282.30;1740.80;;;;;;4973337;28;20069;-56
2022/03/30 02:21:28;;;;;;;36.83;12.20;;;282.50;1715.20;;;;;;4973270;28;20428;-55
2022/03/30 02:23:54;;;;;;;19.95;9.00;;;307.20;1715.20;;;;;;4973090;28;20031;-57
2022/03/30 02:26:20;;;;;;;19.73;9.95;;;307.30;1715.20;;;;;;4973135;28;20027;-56
2022/03/30 02:28:52;;;;;;;23.45;11.02;;;307.40;1689.60;;;;;;4972755;28;20019;-56
2022/03/30 02:31:19;;;;;;;24.05;10.45;;;307.40;1689.60;;;;;;4972890;28;20030;-56
2022/03/30 02:33:46;;;;;;;17.63;8.73;;;307.50;1689.60;;;;;;4972903;28;20130;-56
2022/03/30 02:36:13;;;;;;;25.30;13.85;;;307.60;1689.60;;;;;;4972390;28;20027;-55
2022/03/30 02:38:40;;;;;;;26.65;12.57;;;307.60;1689.60;;;;;;4972520;28;20034;-55
2022/03/30 02:41:06;;;;;;;35.25;20.90;;;307.70;1664.00;;;;;;4972801;28;20033;-56
2022/03/30 02:43:33;;;;;;;38.28;22.85;;;307.20;1766.40;;;;;;4972652;28;20110;-56
2022/03/30 02:45:59;;;;;;;35.15;21.95;;;282.00;1817.60;;;;;;4972689;28;20369;-55
2022/03/30 02:48:28;;;;;;;42.13;18.15;;;281.90;1868.80;;;;;;4972743;28;20114;-55
2022/03/30 02:50:56;;;;;;;27.70;16.08;;;281.80;1843.20;;;;;;4972668;28;20022;-56
2022/03/30 02:53:23;;;;;;;32.25;18.30;;;281.70;1843.20;;;;;;4972700;28;20081;-55
2022/03/30 02:55:49;;;;;;;37.28;17.38;;;281.70;1868.80;;;;;;4972358;28;20034;-55
2022/03/30 02:58:16;;;;;;;31.65;17.42;;;281.60;1894.40;;;;;;4972439;28;20030;-56
2022/03/30 03:00:42;;;;;;;28.52;15.60;;;281.60;1868.80;;;;;;4972591;28;20022;-56
2022/03/30 03:03:09;;;;;;;35.13;17.42;;;256.90;1843.20;;;;;;4972083;28;20461;-55
2022/03/30 03:05:36;;;;;;;48.53;19.58;;;281.70;1843.20;;;;;;4972147;28;20043;-56
2022/03/30 03:08:03;;;;;;;38.72;18.10;;;281.70;1843.20;;;;;;4972354;28;20122;-56
2022/03/30 03:10:30;;;;;;;28.20;14.88;;;281.60;1843.20;;;;;;4972391;28;20026;-56
2022/03/30 03:12:55;;;;;;;26.58;11.60;;;281.60;1868.80;;;;;;4972074;28;20508;-56
2022/03/30 03:15:22;;;;;;;26.70;9.48;;;256.90;1843.20;;;;;;4972253;28;20027;-56
2022/03/30 03:17:48;;;;;;;23.48;10.55;;;256.70;1843.20;;;;;;4972087;28;20557;-55
2022/03/30 03:20:14;;;;;;;21.23;10.73;;;256.70;1868.80;;;;;;4972283;28;20069;-56
2022/03/30 03:22:41;;;;;;;27.45;10.43;;;256.70;1868.80;;;;;;4972011;28;20378;-55
2022/03/30 03:25:08;;;;;;;24.05;11.20;;;256.70;1843.20;;;;;;4971842;28;20026;-56
2022/03/30 03:27:34;;;;;;;31.42;15.43;;;256.90;1817.60;;;;;;4971985;28;20042;-55
2022/03/30 03:30:00;;;;;;;26.85;12.43;;;256.70;1868.80;;;;;;4971872;28;20027;-57
2022/03/30 03:32:26;;;;;;;32.47;20.80;;;256.50;1868.80;;;;;;4971826;28;20035;-56
2022/03/30 03:34:52;;;;;;;31.45;19.15;;;256.30;1920.00;;;;;;4972021;28;20035;-55
2022/03/30 03:37:18;;;;;;;27.48;15.25;;;256.20;1920.00;;;;;;4971769;28;20492;-56
2022/03/30 03:39:44;;;;;;;30.00;14.07;;;256.10;1945.60;;;;;;4971865;28;20031;-55
2022/03/30 03:42:10;;;;;;;26.77;13.05;;;256.00;1945.60;;;;;;4971573;28;20568;-56
2022/03/30 03:44:36;;;;;;;30.10;15.50;;;231.30;1971.20;;;;;;4971370;28;20131;-56
2022/03/30 03:47:03;;;;;;;35.00;15.50;;;256.10;1945.60;;;;;;4972047;28;20037;-55
2022/03/30 03:49:29;;;;;;;24.17;12.65;;;231.20;1971.20;;;;;;4971492;28;20030;-56
2022/03/30 03:51:55;;;;;;;22.50;11.35;;;231.10;1996.80;;;;;;4971743;28;20034;-57
2022/03/30 03:54:21;;;;;;;31.73;13.82;;;231.20;1996.80;;;;;;4971826;28;20117;-56
2022/03/30 03:56:47;;;;;;;23.50;13.38;;;231.10;2022.40;;;;;;4971510;28;20462;-56
2022/03/30 03:59:13;;;;;;;26.35;11.20;;;230.90;2048.00;;;;;;4971409;28;20027;-57
2022/03/30 04:01:39;;;;;;;28.88;11.02;;;231.00;2022.40;;;;;;4971748;28;20097;-56
2022/03/30 04:04:06;;;;;;;33.65;14.93;;;231.00;2048.00;;;;;;4971246;28;20501;-56
2022/03/30 04:06:32;;;;;;;37.70;16.60;;;230.90;2099.20;;;;;;4971540;28;20062;-56
2022/03/30 04:08:58;;;;;;;24.85;13.35;;;230.80;2099.20;;;;;;4971300;28;20027;-57
2022/03/30 04:11:24;;;;;;;22.23;11.25;;;230.80;2124.80;;;;;;4971334;28;20073;-56
2022/03/30 04:13:50;;;;;;;33.08;21.52;;;230.90;2124.80;;;;;;4971104;28;20494;-56
2022/03/30 04:16:17;;;;;;;71.50;45.67;;;230.80;2150.40;;;;;;4971211;28;20025;-56
2022/03/30 04:18:43;;;;;;;35.83;19.65;;;230.90;2176.00;;;;;;4971408;28;20358;-56
2022/03/30 04:21:10;;;;;;;44.83;19.90;;;230.90;2176.00;;;;;;4971454;28;20047;-56
2022/03/30 04:23:36;;;;;;;33.88;18.75;;;231.00;2150.40;;;;;;4971081;28;20039;-56
2022/03/30 04:26:02;;;;;;;49.58;28.42;;;231.00;2176.00;;;;;;4971262;28;20496;-55
2022/03/30 04:28:28;;;;;;;61.70;37.08;;;231.10;2124.80;;;;;;4971157;28;20490;-55
2022/03/30 04:30:54;;;;;;;38.47;17.30;;;231.30;2124.80;;;;;;4971188;28;20051;-56
2022/03/30 04:33:19;;;;;;;168.88;133.35;;;256.00;2124.80;;;;;;4971294;28;20129;-56
2022/03/30 04:35:45;;;;;;;28.13;16.60;;;256.20;2073.60;;;;;;4971045;28;20493;-57
2022/03/30 04:38:11;;;;;;;22.58;11.25;;;256.40;2201.60;;;;;;4971128;28;20035;-56
2022/03/30 04:40:37;;;;;;;20.40;8.57;;;256.70;2048.00;;;;;;4971040;28;20037;-56
2022/03/30 04:43:03;;;;;;;21.27;9.60;;;281.80;1996.80;;;;;;4971148;28;20035;-56
2022/03/30 04:45:29;;;;;;;16.30;8.07;;;282.30;1894.40;;;;;;4970949;28;20466;-56
2022/03/30 04:47:55;;;;;;;30.55;16.77;;;307.20;1894.40;;;;;;4971188;28;20039;-57
2022/03/30 04:50:22;;;;;;;25.38;11.65;;;307.20;1920.00;;;;;;4971146;28;20027;-56
2022/03/30 04:52:48;;;;;;;17.55;9.73;;;307.40;1894.40;;;;;;4970809;28;20108;-56
2022/03/30 04:55:14;;;;;;;24.40;9.80;;;307.60;1894.40;;;;;;4971012;28;20384;-57
2022/03/30 04:57:41;;;;;;;23.23;11.73;;;;;;;;;;4971079;28;20082;-56
2022/03/30 05:00:10;;;;;;;25.27;11.05;;;308.00;1817.60;;;;;;4971841;28;20437;-56
2022/03/30 05:02:36;;;;;;;23.77;11.02;;;;;;;;;;4974419;28;20037;-56
2022/03/30 05:05:03;;;;;;;19.77;11.35;;;308.10;1817.60;;;;;;4974556;28;20047;-56
2022/03/30 05:07:29;;;;;;;16.08;8.10;;;332.90;1817.60;;;;;;4974563;28;20113;-55
2022/03/30 05:09:57;;;;;;;20.73;8.65;;;332.80;1817.60;;;;;;4974516;28;20110;-57
2022/03/30 05:12:23;;;;;;;15.30;8.38;;;333.10;1792.00;;;;;;4974412;28;20035;-55
2022/03/30 05:14:49;;;;;;;30.75;10.20;;;333.30;1792.00;;;;;;4974731;28;20073;-56
2022/03/30 05:17:16;;;;;;;29.90;15.73;;;333.30;1792.00;;;;;;4974834;28;20023;-57
2022/03/30 05:19:44;;;;;;;82.13;37.20;;;333.30;1766.40;;;;;;4974592;28;20393;-56
2022/03/30 05:22:10;;;;;;;77.35;44.03;;;333.20;1843.20;;;;;;4974087;28;20026;-56
2022/03/30 05:24:36;;;;;;;26.17;14.88;;;333.20;1817.60;;;;;;4974199;28;20038;-56
2022/03/30 05:27:03;;;;;;;40.22;21.25;;;333.30;1792.00;;;;;;4974608;28;20351;-56
2022/03/30 05:29:30;;;;;;;37.70;21.33;;;333.50;1740.80;;;;;;4973902;28;20033;-57
2022/03/30 05:31:56;;;;;;;25.83;14.70;;;358.50;1740.80;;;;;;4974242;28;20037;-58
2022/03/30 05:34:22;;;;;;;37.58;14.85;;;358.50;1715.20;;;;;;4974859;28;20038;-56
2022/03/30 05:36:48;;;;;;;28.30;12.55;;;359.00;1664.00;;;;;;4974406;28;20026;-59
2022/03/30 05:39:14;;;;;;;22.52;13.45;;;359.20;1638.40;;;;;;4974097;28;20031;-62
2022/03/30 05:41:39;;;;;;;39.47;24.65;;;384.00;1612.80;;;;;;4974096;28;20019;-62
2022/03/30 05:44:05;;;;;;;29.42;19.33;;;384.40;1587.20;;;;;;4973661;28;20033;-59
2022/03/30 05:46:31;;;;;;;37.58;19.48;;;409.70;1587.20;;;;;;4973802;28;20033;-61
2022/03/30 05:48:57;;;;;;;32.75;21.33;;;410.20;1587.20;;;;;;4973973;28;20030;-59
2022/03/30 05:51:23;;;;;;;42.05;26.70;;;410.30;1587.20;;;;;;4974000;28;20432;-60
2022/03/30 05:53:49;;;;;;;35.83;21.42;;;409.80;1638.40;;;;;;4973535;28;20722;-63
2022/03/30 05:56:15;;;;;;;33.22;19.05;;;409.60;1612.80;;;;;;4973471;28;20034;-58
2022/03/30 05:58:41;;;;;;;33.08;16.38;;;384.80;1561.60;;;;;;4973547;28;20081;-57
2022/03/30 06:01:07;;;;;;;40.25;16.45;;;384.60;1587.20;;;;;;4973400;28;20113;-58
2022/03/30 06:03:37;;;;;;;27.13;16.35;;;384.70;1587.20;;;;;;4973699;28;20054;-59
2022/03/30 06:06:05;;;;;;;73.82;34.92;;;384.60;1612.80;;;;;;4973707;28;20038;-56
2022/03/30 06:08:32;;;;;;;33.90;17.25;;;384.70;1612.80;;;;;;4973750;28;20070;-60
2022/03/30 06:10:57;;;;;;;36.80;14.50;;;384.80;1587.20;;;;;;4973140;28;20027;-60
2022/03/30 06:13:23;;;;;;;35.85;15.93;;;384.90;1587.20;;;;;;4973286;28;20536;-58
2022/03/30 06:15:49;;;;;;;27.73;13.93;;;409.80;1587.20;;;;;;4973404;28;20528;-57
2022/03/30 06:18:15;;;;;;;24.67;12.20;;;410.00;1561.60;;;;;;4973398;28;20031;-60
2022/03/30 06:20:41;;;;;;;38.78;16.58;;;410.00;1536.00;;;;;;4973390;28;20031;-59
2022/03/30 06:23:07;;;;;;;34.55;17.90;;;410.20;1536.00;;;;;;4973033;28;20046;-57
2022/03/30 06:25:33;;;;;;;31.92;20.45;;;410.50;1536.00;;;;;;4973122;28;20019;-59
2022/03/30 06:28:00;;;;;;;32.20;16.70;;;410.50;1536.00;;;;;;4973126;28;20430;-59
2022/03/30 06:30:26;;;;;;;35.83;14.05;;;435.20;1484.80;;;;;;4972823;28;20110;-59
2022/03/30 06:32:52;;;;;;;20.05;10.52;;;435.60;1433.60;;;;;;4972883;28;20063;-57
2022/03/30 06:35:19;;;;;;;24.92;12.20;;;435.20;1459.20;;;;;;4972872;28;20058;-60
2022/03/30 06:37:46;;;;;;;29.52;15.07;;;435.30;1459.20;;;;;;4972815;28;20070;-60
2022/03/30 06:40:14;;;;;;;170.70;122.60;;;435.40;1459.20;;;;;;4972915;28;20505;-59
2022/03/30 06:42:41;;;;;;;48.67;31.02;;;435.50;1459.20;;;;;;4972791;28;20039;-58
2022/03/30 06:45:08;;;;;;;33.70;16.08;;;436.00;1433.60;;;;;;4972725;28;20027;-57
2022/03/30 06:47:34;;;;;;;39.53;21.27;;;460.90;1484.80;;;;;;4972804;28;20538;-60
2022/03/30 06:50:00;;;;;;;50.33;31.02;;;461.40;1433.60;;;;;;4972893;28;20077;-59
2022/03/30 06:52:26;;;;;;;47.42;30.60;;;461.50;1408.00;;;;;;4972634;28;20038;-58
2022/03/30 06:54:52;;;;;;;56.90;31.95;;;461.60;1408.00;;;;;;4972832;28;20089;-58
2022/03/30 06:57:20;;;;;;;68.63;53.97;;;486.40;1382.40;;;;;;4972373;28;20436;-59
2022/03/30 06:59:46;;;;;;;56.78;34.78;;;512.50;1305.60;;;;;;4972319;28;20062;-60
2022/03/30 07:02:12;;;;;;;65.20;39.90;;;563.80;1254.40;;;;;;4972556;28;20038;-60
2022/03/30 07:04:38;;;;;;;64.10;41.25;;;614.90;1126.40;;;;;;4972144;28;20054;-61
2022/03/30 07:12:34;;;;;;;62.80;48.03;;;563.90;1177.60;;;;;;4972030;28;20512;-58
2022/03/30 07:15:01;;;;;;;48.95;35.58;;;589.30;1177.60;;;;;;4972397;28;20089;-61
2022/03/30 07:17:27;;;;;;;43.67;26.00;;;564.00;1177.60;;;;;;4972246;28;20058;-59
2022/03/30 07:19:53;;;;;;;58.25;39.35;;;564.00;1177.60;;;;;;4972347;28;20086;-60
2022/03/30 07:22:19;;;;;;;91.07;71.10;;;563.80;1203.20;;;;;;4971496;28;20553;-57
2022/03/30 07:24:45;;;;;;;60.08;42.90;;;563.90;1203.20;;;;;;4971655;28;20038;-59
2022/03/30 07:27:10;;;;;;;48.53;30.83;;;563.90;1203.20;;;;;;4972065;28;20031;-59
2022/03/30 07:29:36;;;;;;;20.80;12.55;;;563.60;1203.20;;;;;;4971902;28;20031;-58
2022/03/30 07:32:03;;;;;;;18.70;9.35;;;563.50;1177.60;;;;;;4971846;28;20370;-59
2022/03/30 07:34:29;;;;;;;22.40;10.68;;;538.30;1177.60;;;;;;4971748;28;20117;-58
2022/03/30 07:36:55;;;;;;;17.95;9.15;;;538.00;1203.20;;;;;;4971731;28;20458;-58
2022/03/30 07:39:21;;;;;;;18.38;8.07;;;537.90;1177.60;;;;;;4971855;28;20031;-61
2022/03/30 07:41:47;;;;;;;11.43;6.53;;;537.60;1203.20;;;;;;4971695;28;20102;-58
2022/03/30 07:44:12;;;;;;;20.50;8.13;;;512.90;1152.00;;;;;;4971827;28;20439;-57
2022/03/30 07:46:38;;;;;;;16.27;6.35;;;512.90;1152.00;;;;;;4971623;28;20023;-54
2022/03/30 07:49:04;;;;;;;12.05;7.35;;;512.90;1152.00;;;;;;4971691;28;20411;-55
2022/03/30 07:51:30;;;;;;;12.80;6.32;;;512.90;1177.60;;;;;;4971703;28;20066;-55
2022/03/30 07:53:56;;;;;;;17.80;7.20;;;512.60;1177.60;;;;;;4971531;28;20047;-55
2022/03/30 07:56:21;;;;;;;19.00;7.40;;;512.70;1177.60;;;;;;4971585;28;20442;-55
2022/03/30 07:58:49;;;;;;;14.65;6.65;;;512.70;1177.60;;;;;;4971366;28;20031;-55
2022/03/30 08:01:16;;;;;;;14.95;7.65;;;512.70;1177.60;;;;;;4971511;28;20069;-55
2022/03/30 08:03:44;;;;;;;11.93;7.45;;;512.60;1152.00;;;;;;4971274;28;20043;-55
2022/03/30 08:06:11;;;;;;;17.05;7.05;;;512.70;1177.60;;;;;;4971343;28;20082;-54
2022/03/30 08:08:37;;;;;;;21.02;6.75;;;512.60;1152.00;;;;;;4971226;28;20085;-55
2022/03/30 08:11:03;;;;;;;18.42;7.32;;;512.30;1177.60;;;;;;4971683;28;20465;-55
2022/03/30 08:13:29;;;;;;;17.83;8.02;;;512.40;1177.60;;;;;;4971148;28;20173;-55
2022/03/30 08:15:54;;;;;;;23.42;7.75;;;512.60;1177.60;;;;;;4971115;28;20072;-56
2022/03/30 08:18:21;;;;;;;13.90;7.43;;;512.60;1177.60;;;;;;4971387;28;20053;-55
2022/03/30 08:23:31;;;;;;;17.40;7.80;;;512.90;1177.60;;;;;;4971223;28;20070;-59
2022/03/30 08:25:57;;;;;;;12.88;7.65;;;512.80;1177.60;;;;;;4971159;28;20071;-55
2022/03/30 08:28:23;;;;;;;17.95;7.13;;;537.60;1177.60;;;;;;4971362;28;20106;-60
2022/03/30 08:30:49;;;;;;;19.90;8.07;;;537.60;1177.60;;;;;;4971103;28;21046;-55
2022/03/30 08:33:16;;;;;;;18.77;8.05;;;512.90;1152.00;;;;;;4971131;28;20587;-57
2022/03/30 08:35:42;;;;;;;16.30;7.35;;;512.90;1152.00;;;;;;4974859;28;20051;-56
2022/03/30 08:38:09;;;;;;;12.82;8.13;;;512.90;1152.00;;;;;;4974876;28;20425;-56
2022/03/30 08:40:34;;;;;;;14.63;7.05;;;537.70;1177.60;;;;;;4975275;28;20026;-57
2022/03/30 08:43:00;;;;;;;15.45;7.55;;;538.20;1152.00;;;;;;4975072;28;20401;-56
2022/03/30 08:45:26;;;;;;;18.70;7.30;;;538.30;1152.00;;;;;;4975081;28;20110;-56
2022/03/30 08:47:52;;;;;;;16.08;7.72;;;538.30;1152.00;;;;;;4974992;28;20105;-58
2022/03/30 08:50:19;;;;;;;18.63;9.35;;;538.20;1177.60;;;;;;4974835;28;20025;-56
2022/03/30 08:52:49;;;;;;;15.60;7.38;;;538.00;1177.60;;;;;;4974681;28;20386;-56
2022/03/30 08:55:16;;;;;;;20.58;7.15;;;537.80;1177.60;;;;;;4974920;28;20058;-55
2022/03/30 08:57:41;;;;;;;16.40;7.53;;;537.70;1203.20;;;;;;4974667;28;20023;-55
2022/03/30 09:00:19;;;;;;;15.77;7.40;;;537.80;1254.40;;;;;;4974569;28;20023;-55
2022/03/30 09:02:55;;;;;;;16.30;7.15;;;537.80;1203.20;;;;;;4974644;28;20121;-55
2022/03/30 09:05:25;;;;;;;11.00;6.20;;;538.10;1203.20;;;;;;4974360;28;20126;-56
2022/03/30 09:07:56;;;;;;;16.10;7.22;;;538.10;1177.60;;;;;;4974578;28;20034;-56
2022/03/30 09:10:28;;;;;;;16.80;7.43;;;538.00;1152.00;;;;;;4974580;28;20038;-56
2022/03/30 09:12:56;;;;;;;27.13;8.00;;;538.10;1177.60;;;;;;4974439;28;20098;-55
2022/03/30 09:15:23;;;;;;;16.42;6.72;;;538.10;1177.60;;;;;;4974394;28;20046;-55
2022/03/30 09:17:55;;;;;;;18.75;7.38;;;537.80;1228.80;;;;;;4974324;28;20056;-55
2022/03/30 09:20:20;;;;;;;12.63;7.10;;;538.00;1177.60;;;;;;4974470;28;20118;-56
2022/03/30 09:22:52;;;;;;;16.45;7.88;;;538.00;1177.60;;;;;;4974075;28;20063;-56
2022/03/30 09:25:22;;;;;;;15.13;7.07;;;538.20;1203.20;;;;;;4973859;28;20033;-55
2022/03/30 09:27:47;;;;;;;17.38;6.57;;;538.30;1177.60;;;;;;4974146;28;20030;-56
2022/03/30 09:30:15;;;;;;;17.55;7.20;;;538.20;1177.60;;;;;;4974183;28;20019;-59
2022/03/30 09:32:43;;;;;;;18.27;6.55;;;538.20;1177.60;;;;;;4974092;28;20035;-59
2022/03/30 09:35:19;;;;;;;18.02;7.05;;;538.10;1177.60;;;;;;4974078;28;20500;-59
2022/03/30 09:37:46;;;;;;;17.30;7.35;;;538.20;1254.40;;;;;;4974206;28;20378;-59
2022/03/30 09:40:12;;;;;;;17.02;7.65;;;538.40;1177.60;;;;;;4973985;28;20030;-56
2022/03/30 09:42:38;;;;;;;13.15;7.15;;;538.30;1177.60;;;;;;4973823;28;20031;-57
2022/03/30 09:45:04;;;;;;;11.90;6.43;;;538.20;1203.20;;;;;;4973883;28;20038;-56
2022/03/30 09:47:38;;;;;;;14.73;6.38;;;538.30;1203.20;;;;;;4972957;28;20110;-56
2022/03/30 09:50:07;;;;;;;17.42;7.00;;;538.20;1203.20;;;;;;4974104;28;20034;-59
2022/03/30 09:52:36;;;;;;;16.50;7.13;;;538.30;1203.20;;;;;;4973883;28;20027;-59
2022/03/30 09:55:04;;;;;;;18.52;7.32;;;538.30;1177.60;;;;;;4973990;28;20064;-57
2022/03/30 09:57:41;;;;;;;18.58;6.75;;;538.10;1203.20;;;;;;4973891;28;20112;-55
2022/03/30 10:00:12;;;;;;;16.05;6.40;;;538.30;1177.60;;;;;;4973481;28;20031;-59
2022/03/30 10:02:40;;;;;;;19.65;6.78;;;538.40;1177.60;;;;;;4970997;28;20485;-59
2022/03/30 10:05:07;;;;;;;21.23;6.45;;;538.30;1177.60;;;;;;4962971;28;20047;-55
2022/03/30 10:07:33;;;;;;;14.70;7.28;;;538.40;1203.20;;;;;;4963615;28;20077;-59
2022/03/30 10:10:00;;;;;;;15.55;8.80;;;538.40;1203.20;;;;;;4962200;28;20027;-61
2022/03/30 10:12:27;;;;;;;23.60;9.25;;;563.20;1228.80;;;;;;4961622;28;20113;-59
2022/03/30 10:14:54;;;;;;;16.45;7.85;;;538.50;1203.20;;;;;;4963262;28;20045;-60
2022/03/30 10:17:22;;;;;;;13.77;7.40;;;538.40;1177.60;;;;;;4962230;28;20042;-56
2022/03/30 10:19:49;;;;;;;18.08;7.85;;;563.20;1203.20;;;;;;4961362;28;20026;-57
2022/03/30 10:22:40;;;;;;;21.83;10.30;;;563.30;1203.20;;;;;;4963168;28;20841;-59
2022/03/30 10:25:47;;;;;;;31.70;14.23;;;538.30;1152.00;;;;;;4962897;28;20046;-60
2022/03/30 10:28:17;;;;;;;19.00;8.32;;;538.30;1203.20;;;;;;4931115;29;20032;-60
2022/03/30 10:30:44;;;;;;;17.02;8.52;;;538.30;1203.20;;;;;;4931057;29;20086;-56
2022/03/30 10:33:11;;;;;;;21.13;7.90;;;538.20;1203.20;;;;;;4930854;29;20040;-61
2022/03/30 10:35:46;;;;;;;13.02;7.22;;;538.10;1177.60;;;;;;4930820;29;20023;-60
2022/03/30 10:38:13;;;;;;;20.23;8.05;;;538.00;1203.20;;;;;;4930992;29;20035;-56
2022/03/30 10:40:39;;;;;;;15.38;7.28;;;538.00;1228.80;;;;;;4930855;29;20047;-60
2022/03/30 10:43:13;;;;;;;15.95;7.90;;;538.20;1228.80;;;;;;4930668;29;20084;-60
2022/03/30 10:45:43;;;;;;;15.80;7.70;;;538.20;1203.20;;;;;;4928619;29;20040;-60
2022/03/30 10:48:21;;;;;;;19.15;7.68;;;538.30;1228.80;;;;;;4930419;29;20478;-56
2022/03/30 10:50:57;;;;;;;21.45;7.65;;;538.40;1228.80;;;;;;4928705;29;20031;-59
2022/03/30 10:53:32;;;;;;;15.27;8.55;;;538.40;1177.60;;;;;;4928425;29;20678;-61
2022/03/30 10:56:15;;;;;;;17.58;9.32;;;538.50;1228.80;;;;;;4930436;29;20035;-56
2022/03/30 10:58:50;;;;;;;25.02;9.05;;;563.20;1228.80;;;;;;4924564;29;20057;-60
2022/03/30 11:01:27;;;;;;;17.00;8.27;;;563.40;1203.20;;;;;;4930297;29;20540;-57
2022/03/30 11:04:02;;;;;;;15.70;7.70;;;563.50;1177.60;;;;;;4926822;29;20051;-58
2022/03/30 11:06:29;;;;;;;16.58;7.22;;;563.50;1203.20;;;;;;4958676;28;20054;-57
2022/03/30 11:09:08;;;;;;;15.35;8.20;;;563.40;1203.20;;;;;;4940035;28;20030;-57
2022/03/30 11:11:42;;;;;;;19.98;8.70;;;563.70;1177.60;;;;;;4961945;28;20113;-58
2022/03/30 11:14:32;;;;;;;24.20;8.48;;;564.00;1177.60;;;;;;4962046;28;20047;-60
2022/03/30 11:16:57;;;;;;;19.80;8.15;;;588.90;1152.00;;;;;;4948253;28;20050;-56
2022/03/30 11:19:29;;;;;;;13.82;6.88;;;589.10;1152.00;;;;;;4961974;28;20070;-58
2022/03/30 11:22:14;;;;;;;21.73;9.20;;;589.40;1126.40;;;;;;4961759;28;20493;-57
2022/03/30 11:24:44;;;;;;;19.08;9.32;;;589.20;1100.80;;;;;;4962745;28;20030;-57
2022/03/30 11:27:10;;;;;;;17.60;6.90;;;589.00;1100.80;;;;;;4961146;28;20041;-56
2022/03/30 11:29:53;;;;;;;17.52;7.60;;;589.00;1100.80;;;;;;5065641;28;20399;-58
2022/03/30 11:32:32;;;;;;;21.40;8.43;;;588.90;1075.20;;;;;;5065858;28;20501;-61
2022/03/30 11:35:03;;;;;;;22.88;11.32;;;589.10;1126.40;;;;;;5056787;28;20024;-59
2022/03/30 11:37:43;;;;;;;18.80;8.30;;;589.10;1152.00;;;;;;5055500;28;20021;-59
2022/03/30 11:40:12;;;;;;;21.30;9.07;;;589.30;1126.40;;;;;;5055589;28;20022;-60
2022/03/30 11:42:44;;;;;;;23.45;8.63;;;589.40;1100.80;;;;;;5054935;28;20017;-62
2022/03/30 11:45:13;;;;;;;21.15;8.32;;;589.50;1075.20;;;;;;5056330;28;20052;-60
2022/03/30 11:47:58;;;;;;;17.05;7.47;;;589.70;1075.20;;;;;;5064202;28;20112;-60
2022/03/30 11:50:52;;;;;;;18.70;7.45;;;589.20;1075.20;;;;;;5067167;28;20039;-60
2022/03/30 11:53:26;;;;;;;18.40;7.50;;;589.20;1100.80;;;;;;5066873;28;20086;-57
2022/03/30 11:56:06;;;;;;;22.73;7.97;;;589.00;1126.40;;;;;;5067156;28;20375;-57
2022/03/30 11:58:49;;;;;;;17.92;7.68;;;589.00;1100.80;;;;;;5066626;28;20541;-60
2022/03/30 12:01:16;;;;;;;17.60;7.60;;;589.00;1100.80;;;;;;5066685;28;20060;-57
2022/03/30 12:03:43;;;;;;;20.95;6.88;;;589.10;1100.80;;;;;;5066751;28;20028;-57
2022/03/30 12:06:10;;;;;;;17.63;6.57;;;589.20;1100.80;;;;;;5066350;28;20155;-58
2022/03/30 12:08:43;;;;;;;21.08;8.10;;;589.50;1126.40;;;;;;5066502;28;20166;-61
2022/03/30 12:11:10;;;;;;;15.68;7.07;;;589.50;1126.40;;;;;;5066633;28;20501;-60
2022/03/30 12:13:35;;;;;;;16.23;7.20;;;589.60;1126.40;;;;;;5066425;28;20029;-59
2022/03/30 12:16:14;;;;;;;16.25;7.88;;;614.50;1100.80;;;;;;5066435;28;20027;-61
2022/03/30 12:18:47;;;;;;;15.80;7.07;;;614.70;1075.20;;;;;;5066546;28;20035;-61